Time;durP1;ratioP1;P1;durP2;ratioP2;P2;SDS_P1;SDS_P2;PMS_P1;PMS_P2;Temp;Humidity;BMP_temperature;BMP_pressure;BME280_temperature;BME280_humidity;BME280_pressure;Samples;Min_cycle;Max_cycle;Signal;HPM_P1;HPM_P2
2023/11/16 00:01:21;;;;;;;0.30;0.20;;;;;;;10.29;94.62;100498.38;5038559;28;20505;-50
2023/11/16 00:03:49;;;;;;;0.30;0.20;;;;;;;10.12;95.91;100493.41;5055307;28;20512;-50
2023/11/16 00:06:16;;;;;;;0.30;0.20;;;;;;;10.07;95.72;100487.34;5053080;28;20486;-49
2023/11/16 00:08:42;;;;;;;0.30;0.20;;;;;;;10.18;95.59;100487.97;5055060;28;20501;-50
2023/11/16 00:11:10;;;;;;;0.30;0.20;;;;;;;10.15;94.77;100479.19;5048009;28;20452;-50
2023/11/16 00:13:37;;;;;;;0.30;0.20;;;;;;;9.75;95.31;100485.41;5046250;28;20931;-50
2023/11/16 00:16:04;;;;;;;0.30;0.20;;;;;;;9.58;95.53;100487.53;5050286;28;20458;-50
2023/11/16 00:18:34;;;;;;;0.30;0.20;;;;;;;9.15;95.99;100484.00;5049090;28;20950;-49
2023/11/16 00:21:01;;;;;;;0.30;0.20;;;;;;;8.99;96.34;100479.91;5055018;28;20508;-50
2023/11/16 00:23:27;;;;;;;0.30;0.20;;;;;;;8.96;96.46;100482.63;5054971;28;20838;-50
2023/11/16 00:25:55;;;;;;;0.30;0.20;;;;;;;8.86;96.67;100479.25;5051309;28;20490;-50
2023/11/16 00:28:24;;;;;;;0.30;0.20;;;;;;;8.95;96.63;100472.91;5054896;28;20474;-50
2023/11/16 00:30:50;;;;;;;0.30;0.20;;;;;;;8.97;96.99;100475.53;5041349;28;20477;-50
2023/11/16 00:33:16;;;;;;;0.30;0.20;;;;;;;9.20;97.58;100471.53;5050999;28;20448;-50
2023/11/16 00:35:43;;;;;;;0.30;0.20;;;;;;;9.01;96.90;100467.47;5034805;28;20458;-50
2023/11/16 00:38:10;;;;;;;0.30;0.20;;;;;;;8.99;96.80;100461.34;5041041;28;20473;-50
2023/11/16 00:40:37;;;;;;;0.30;0.20;;;;;;;8.87;96.93;100453.63;5054535;28;20500;-49
2023/11/16 00:43:05;;;;;;;0.30;0.20;;;;;;;8.72;97.55;100457.44;5054717;28;20516;-51
2023/11/16 00:45:33;;;;;;;0.30;0.20;;;;;;;8.57;97.48;100460.34;5054499;28;20508;-49
2023/11/16 00:48:00;;;;;;;0.30;0.20;;;;;;;8.36;97.19;100461.63;5054400;28;20455;-49
2023/11/16 00:50:27;;;;;;;0.30;0.20;;;;;;;8.40;96.52;100458.00;5054367;28;20490;-50
2023/11/16 00:52:55;;;;;;;0.30;0.20;;;;;;;8.19;97.11;100453.91;5047467;28;20455;-50
2023/11/16 00:55:21;;;;;;;0.30;0.20;;;;;;;8.16;96.64;100464.53;5053972;28;20451;-49
2023/11/16 00:57:51;;;;;;;0.30;0.20;;;;;;;8.14;96.77;100462.81;5047806;28;20542;-49
2023/11/16 01:00:19;;;;;;;0.30;0.20;;;;;;;8.15;95.99;100459.28;5050486;28;20523;-50
2023/11/16 01:02:49;;;;;;;0.30;0.20;;;;;;;8.20;96.58;100457.41;5040651;28;20462;-50
2023/11/16 01:05:17;;;;;;;0.30;0.20;;;;;;;8.21;96.26;100457.38;5053709;28;20446;-49
2023/11/16 01:07:44;;;;;;;0.30;0.20;;;;;;;8.17;96.73;100446.88;5053968;28;20935;-50
2023/11/16 01:10:15;;;;;;;0.30;0.20;;;;;;;8.20;97.11;100453.00;5027641;28;20979;-49
2023/11/16 01:12:43;;;;;;;0.30;0.20;;;;;;;8.38;97.13;100443.06;5049471;28;20582;-49
2023/11/16 01:15:13;;;;;;;0.30;0.20;;;;;;;8.29;97.53;100444.03;5054041;28;20450;-50
2023/11/16 01:17:42;;;;;;;0.30;0.20;;;;;;;8.31;98.47;100451.03;5053934;28;20447;-49
2023/11/16 01:20:18;;;;;;;0.30;0.20;;;;;;;8.40;97.94;100451.84;5052586;28;20512;-49
2023/11/16 01:23:00;;;;;;;0.30;0.20;;;;;;;8.40;97.98;100451.84;5052743;28;20458;-50
2023/11/16 01:25:27;;;;;;;0.30;0.20;;;;;;;8.52;97.51;100452.50;5053893;28;20496;-50
2023/11/16 01:27:57;;;;;;;0.30;0.20;;;;;;;8.65;97.65;100449.63;5053594;28;20450;-49
2023/11/16 01:30:24;;;;;;;0.30;0.20;;;;;;;8.72;98.33;100449.47;5040479;28;20515;-50
2023/11/16 01:32:52;;;;;;;0.30;0.20;;;;;;;8.74;98.42;100447.66;5036373;28;20469;-49
2023/11/16 01:35:21;;;;;;;0.30;0.20;;;;;;;8.78;98.74;100438.78;5039602;28;20505;-49
2023/11/16 01:37:49;;;;;;;0.30;0.20;;;;;;;8.86;98.70;100436.84;5049910;28;20465;-50
2023/11/16 01:40:16;;;;;;;0.30;0.20;;;;;;;8.59;99.82;100445.31;5053315;28;20471;-49
2023/11/16 01:42:43;;;;;;;0.30;0.20;;;;;;;8.47;100.00;100448.16;5047440;28;20489;-50
2023/11/16 01:45:30;;;;;;;0.30;0.20;;;;;;;8.57;100.00;100455.06;5053212;28;20454;-50
2023/11/16 01:48:06;;;;;;;0.30;0.20;;;;;;;8.97;100.00;100451.66;5053207;28;20478;-50
2023/11/16 01:50:36;;;;;;;0.30;0.20;;;;;;;9.00;100.00;100455.13;5053055;28;20494;-50
2023/11/16 01:53:13;;;;;;;0.30;0.20;;;;;;;9.01;100.00;100453.34;5053357;28;20909;-49
2023/11/16 01:55:43;;;;;;;0.30;0.20;;;;;;;9.09;100.00;100451.44;5028031;28;20442;-49
2023/11/16 01:58:09;;;;;;;0.30;0.20;;;;;;;9.14;100.00;100461.03;5048608;28;20532;-49
2023/11/16 02:00:37;;;;;;;0.30;0.20;;;;;;;9.05;100.00;100447.97;5051304;22;20539;-46
2023/11/16 02:03:04;;;;;;;0.30;0.20;;;;;;;9.03;100.00;100440.94;5021459;28;20449;-46
2023/11/16 02:05:35;;;;;;;0.30;0.20;;;;;;;9.22;100.00;100444.97;5034137;28;20448;-46
2023/11/16 02:08:06;;;;;;;0.30;0.20;;;;;;;9.14;100.00;100446.91;5033629;28;20477;-45
2023/11/16 02:10:32;;;;;;;0.30;0.20;;;;;;;9.19;100.00;100445.06;5033536;28;20491;-46
2023/11/16 02:12:59;;;;;;;0.30;0.20;;;;;;;9.17;100.00;100446.84;5033405;28;20542;-46
2023/11/16 02:15:27;;;;;;;0.30;0.20;;;;;;;9.20;100.00;100445.00;5029034;28;20456;-46
2023/11/16 02:17:54;;;;;;;0.30;0.20;;;;;;;9.23;100.00;100441.41;5032972;28;20456;-46
2023/11/16 02:20:23;;;;;;;0.30;0.20;;;;;;;8.98;100.00;100433.09;5015841;28;20480;-46
2023/11/16 02:22:52;;;;;;;0.30;0.20;;;;;;;9.08;100.00;100439.09;5031099;28;20491;-45
2023/11/16 02:25:18;;;;;;;0.30;0.20;;;;;;;9.13;100.00;100426.59;5033366;28;20449;-45
2023/11/16 02:27:45;;;;;;;0.30;0.20;;;;;;;9.16;100.00;100424.75;5031052;28;20455;-46
2023/11/16 02:30:12;;;;;;;0.30;0.20;;;;;;;9.10;100.00;100416.94;5021782;28;20568;-46
2023/11/16 02:32:40;;;;;;;0.30;0.20;;;;;;;9.23;100.00;100424.63;5031495;28;20448;-45
2023/11/16 02:35:08;;;;;;;0.30;0.20;;;;;;;9.25;100.00;100417.50;5020231;28;20452;-46
2023/11/16 02:37:35;;;;;;;0.30;0.20;;;;;;;9.26;100.00;100430.75;5029538;28;20487;-46
2023/11/16 02:40:04;;;;;;;0.30;0.20;;;;;;;9.23;100.00;100424.63;5032883;28;20550;-46
2023/11/16 02:42:31;;;;;;;0.30;0.20;;;;;;;8.86;100.00;100434.19;5033521;28;20491;-46
2023/11/16 02:44:58;;;;;;;0.30;0.20;;;;;;;8.92;100.00;100424.38;5035006;28;20936;-46
2023/11/16 02:47:24;;;;;;;0.30;0.20;;;;;;;8.98;100.00;100429.56;5034641;28;20455;-46
2023/11/16 02:49:52;;;;;;;0.30;0.20;;;;;;;9.21;100.00;100416.72;5033429;28;20561;-46
2023/11/16 02:52:19;;;;;;;0.30;0.20;;;;;;;9.34;100.00;100418.19;5032573;28;20476;-46
2023/11/16 02:54:47;;;;;;;0.30;0.20;;;;;;;9.33;100.00;100421.75;5032297;28;20464;-46
2023/11/16 02:57:13;;;;;;;0.30;0.20;;;;;;;9.38;100.00;100422.53;5019967;28;20543;-46
2023/11/16 02:59:40;;;;;;;0.30;0.20;;;;;;;9.38;100.00;100413.69;5029338;28;20558;-46
2023/11/16 03:02:07;;;;;;;0.30;0.20;;;;;;;9.42;100.00;100418.03;5017453;28;20462;-46
2023/11/16 03:04:33;;;;;;;0.30;0.20;;;;;;;9.46;100.00;100403.81;5032106;28;20455;-47
2023/11/16 03:07:00;;;;;;;0.30;0.20;;;;;;;9.37;100.00;100399.56;5032166;28;20465;-46
2023/11/16 03:09:27;;;;;;;0.30;0.20;;;;;;;9.40;100.00;100398.59;5031821;28;20503;-46
2023/11/16 03:11:53;;;;;;;0.30;0.20;;;;;;;9.20;100.00;100402.59;5022001;28;20455;-46
2023/11/16 03:14:20;;;;;;;0.30;0.20;;;;;;;9.32;100.00;100400.53;5032211;28;20488;-47
2023/11/16 03:16:48;;;;;;;0.30;0.20;;;;;;;9.25;100.00;100393.66;5031717;28;20458;-46
2023/11/16 03:19:19;;;;;;;0.30;0.20;;;;;;;9.20;100.00;100391.09;5024313;28;20480;-46
2023/11/16 03:21:45;;;;;;;0.30;0.20;;;;;;;9.07;100.00;100394.91;5033213;28;20452;-46
2023/11/16 03:24:12;;;;;;;0.30;0.20;;;;;;;9.12;100.00;100393.91;5023994;28;20452;-46
2023/11/16 03:26:39;;;;;;;0.30;0.20;;;;;;;9.29;100.00;100398.84;5032681;28;20447;-46
2023/11/16 03:29:06;;;;;;;0.30;0.20;;;;;;;9.28;100.00;100396.22;5025370;28;20658;-47
2023/11/16 03:31:35;;;;;;;0.30;0.20;;;;;;;9.19;100.00;100402.63;5021220;28;20483;-45
2023/11/16 03:34:05;;;;;;;0.30;0.20;;;;;;;9.07;100.00;100416.13;5028796;28;21284;-45
2023/11/16 03:36:32;;;;;;;0.30;0.20;;;;;;;8.99;100.00;100418.03;5022251;28;20448;-46
2023/11/16 03:38:59;;;;;;;0.30;0.20;;;;;;;9.01;100.00;100425.06;5028413;28;20471;-46
2023/11/16 03:41:26;;;;;;;0.30;0.20;;;;;;;8.75;100.00;100407.00;5031608;28;20486;-45
2023/11/16 03:43:52;;;;;;;0.30;0.20;;;;;;;8.73;99.79;100400.00;5029924;28;20482;-46
2023/11/16 03:46:19;;;;;;;0.30;0.20;;;;;;;8.74;99.92;100392.00;5022482;28;20543;-46
2023/11/16 03:48:45;;;;;;;0.30;0.20;;;;;;;8.64;100.00;100393.13;5033180;28;20530;-46
2023/11/16 03:51:12;;;;;;;0.30;0.20;;;;;;;8.68;100.00;100391.28;5032653;28;20487;-45
2023/11/16 03:53:39;;;;;;;0.30;0.20;;;;;;;8.56;100.00;100393.25;5030655;28;20447;-45
2023/11/16 03:56:07;;;;;;;0.30;0.20;;;;;;;8.54;100.00;100387.13;5033939;28;20586;-45
2023/11/16 03:58:34;;;;;;;0.30;0.20;;;;;;;8.39;100.00;100383.88;5033791;28;20535;-45
2023/11/16 04:01:00;;;;;;;0.30;0.20;;;;;;;8.56;100.00;100380.00;5023061;28;20449;-47
2023/11/16 04:03:27;;;;;;;0.30;0.20;;;;;;;8.39;100.00;100373.28;5032409;28;20452;-47
2023/11/16 04:05:53;;;;;;;0.30;0.20;;;;;;;8.45;100.00;100378.44;5033574;28;20859;-44
2023/11/16 04:08:20;;;;;;;0.30;0.20;;;;;;;8.21;100.00;100363.84;5032699;28;20458;-46
2023/11/16 04:10:46;;;;;;;0.30;0.20;;;;;;;8.30;100.00;100382.22;5034936;28;20582;-45
2023/11/16 04:13:13;;;;;;;0.30;0.20;;;;;;;8.38;100.00;100390.06;5034556;28;20444;-45
2023/11/16 04:15:39;;;;;;;0.30;0.20;;;;;;;8.35;100.00;100384.81;5034266;28;20458;-46
2023/11/16 04:18:07;;;;;;;0.30;0.20;;;;;;;8.33;100.00;100382.16;5032034;28;20476;-46
2023/11/16 04:20:35;;;;;;;0.30;0.20;;;;;;;8.40;99.91;100372.38;5026137;28;20463;-45
2023/11/16 04:23:02;;;;;;;0.30;0.20;;;;;;;8.45;100.00;100370.50;5034475;28;20882;-46
2023/11/16 04:25:29;;;;;;;0.30;0.20;;;;;;;8.48;100.00;100366.00;5034025;28;20453;-46
2023/11/16 04:27:59;;;;;;;0.30;0.20;;;;;;;8.48;100.00;100365.16;5033516;28;20467;-45
2023/11/16 04:30:28;;;;;;;0.30;0.20;;;;;;;8.51;100.00;100365.13;5023961;28;20498;-46
2023/11/16 04:32:55;;;;;;;0.30;0.20;;;;;;;8.49;100.00;100358.94;5036068;28;20455;-46
2023/11/16 04:35:22;;;;;;;0.30;0.20;;;;;;;8.47;100.00;100358.09;5025920;28;20445;-48
2023/11/16 04:37:50;;;;;;;0.30;0.20;;;;;;;8.35;100.00;100353.91;5024957;28;20487;-45
2023/11/16 04:40:16;;;;;;;0.30;0.20;;;;;;;8.32;100.00;100352.16;5037197;28;20554;-45
2023/11/16 04:42:43;;;;;;;0.30;0.20;;;;;;;8.44;100.00;100363.47;5037566;28;20447;-45
2023/11/16 04:45:11;;;;;;;0.30;0.20;;;;;;;8.42;100.00;100370.56;5037666;28;20448;-45
2023/11/16 04:47:44;;;;;;;0.30;0.20;;;;;;;8.38;100.00;100363.59;5032142;28;20510;-46
2023/11/16 04:50:13;;;;;;;0.30;0.20;;;;;;;8.24;100.00;100355.88;5036922;28;20507;-46
2023/11/16 04:52:40;;;;;;;0.30;0.20;;;;;;;8.25;100.00;100355.84;5037534;28;20478;-46
2023/11/16 04:55:07;;;;;;;0.30;0.20;;;;;;;8.38;99.96;100361.81;5036514;28;20534;-46
2023/11/16 04:57:37;;;;;;;0.30;0.20;;;;;;;8.22;100.00;100357.63;5018756;28;20543;-46
2023/11/16 05:00:10;;;;;;;0.30;0.20;;;;;;;8.11;100.00;100347.25;5035302;28;20541;-45
2023/11/16 05:02:37;;;;;;;0.30;0.20;;;;;;;8.03;100.00;100347.38;5028860;28;20460;-45
2023/11/16 05:05:04;;;;;;;0.30;0.20;;;;;;;7.98;100.00;100343.97;5037839;28;20451;-45
2023/11/16 05:07:30;;;;;;;0.30;0.20;;;;;;;7.90;100.00;100344.97;5017739;28;20455;-45
2023/11/16 05:10:00;;;;;;;0.30;0.20;;;;;;;7.99;100.00;100344.81;5037755;28;21078;-54
2023/11/16 05:12:28;;;;;;;0.30;0.20;;;;;;;7.86;100.00;100344.16;5037659;28;20482;-46
2023/11/16 05:14:55;;;;;;;0.30;0.20;;;;;;;7.94;100.00;100339.59;5024996;28;20455;-47
2023/11/16 05:17:21;;;;;;;0.30;0.20;;;;;;;7.99;100.00;100337.75;5031438;28;20487;-46
2023/11/16 05:19:48;;;;;;;0.30;0.20;;;;;;;7.97;100.00;100344.84;5036416;28;20546;-46
2023/11/16 05:22:14;;;;;;;0.30;0.20;;;;;;;7.95;99.95;100346.66;5036453;28;21043;-46
2023/11/16 05:24:41;;;;;;;0.30;0.20;;;;;;;7.99;100.00;100342.19;5030732;28;20448;-47
2023/11/16 05:27:07;;;;;;;0.30;0.20;;;;;;;7.94;100.00;100339.59;5036439;28;20448;-46
2023/11/16 05:29:34;;;;;;;0.30;0.20;;;;;;;7.96;99.52;100332.53;5028344;28;20514;-46
2023/11/16 05:32:00;;;;;;;0.30;0.20;;;;;;;7.95;100.00;100333.44;5005327;28;20449;-47
2023/11/16 05:34:29;;;;;;;0.30;0.20;;;;;;;7.93;99.75;100334.31;5036398;28;20907;-47
2023/11/16 05:36:57;;;;;;;0.30;0.20;;;;;;;7.99;99.27;100321.88;5021826;28;20547;-46
2023/11/16 05:39:23;;;;;;;0.30;0.20;;;;;;;7.90;100.00;100311.44;5036547;28;20479;-46
2023/11/16 05:41:50;;;;;;;0.30;0.20;;;;;;;7.93;100.00;100314.03;5035848;28;20979;-46
2023/11/16 05:44:21;;;;;;;0.30;0.20;;;;;;;7.97;100.00;100304.28;5018282;28;21038;-46
2023/11/16 05:46:47;;;;;;;0.30;0.20;;;;;;;8.05;100.00;100305.00;5035728;28;20873;-46
2023/11/16 05:49:15;;;;;;;0.30;0.20;;;;;;;8.04;100.00;100308.56;5035433;28;20499;-46
2023/11/16 05:51:42;;;;;;;0.30;0.20;;;;;;;8.17;100.00;100306.56;5033875;28;20519;-46
2023/11/16 05:54:10;;;;;;;0.30;0.20;;;;;;;8.20;100.00;100303.84;5024573;28;20459;-45
2023/11/16 05:56:40;;;;;;;0.30;0.20;;;;;;;8.30;100.00;100306.28;5035388;28;20501;-46
2023/11/16 05:59:10;;;;;;;0.30;0.20;;;;;;;8.17;99.43;100302.13;5026520;28;20481;-46
2023/11/16 06:01:38;;;;;;;0.30;0.20;;;;;;;8.08;99.72;100298.78;5021618;28;20444;-46
2023/11/16 06:04:06;;;;;;;0.30;0.20;;;;;;;8.03;100.00;100299.75;5035507;28;20455;-45
2023/11/16 06:06:34;;;;;;;0.30;0.20;;;;;;;7.97;100.00;100299.88;5035043;28;20819;-45
2023/11/16 06:09:04;;;;;;;0.30;0.20;;;;;;;8.10;100.00;100302.28;5035340;28;20562;-46
2023/11/16 06:11:31;;;;;;;0.30;0.20;;;;;;;8.09;100.00;100305.84;5034476;28;20496;-45
2023/11/16 06:13:59;;;;;;;0.30;0.20;;;;;;;8.10;100.00;100305.81;5024345;28;20551;-45
2023/11/16 06:16:26;;;;;;;0.30;0.20;;;;;;;8.14;100.00;100296.03;5033119;28;20543;-46
2023/11/16 06:18:53;;;;;;;0.30;0.20;;;;;;;8.20;100.00;100290.59;5034554;28;20495;-46
2023/11/16 06:21:20;;;;;;;0.30;0.20;;;;;;;8.18;100.00;100293.28;5033926;28;20478;-45
2023/11/16 06:23:46;;;;;;;0.30;0.20;;;;;;;8.32;100.00;100285.94;5034320;28;20497;-46
2023/11/16 06:26:13;;;;;;;0.30;0.20;;;;;;;8.43;100.00;100285.78;5032827;28;20867;-46
2023/11/16 06:28:40;;;;;;;0.30;0.20;;;;;;;8.42;100.00;100275.22;5025540;28;20908;-47
2023/11/16 06:31:06;;;;;;;0.30;0.20;;;;;;;8.60;100.00;100270.41;5019749;28;20491;-46
2023/11/16 06:33:33;;;;;;;0.30;0.20;;;;;;;8.55;100.00;100276.72;5033211;28;20479;-46
2023/11/16 06:36:00;;;;;;;0.30;0.20;;;;;;;8.46;100.00;100272.47;5029371;28;20476;-46
2023/11/16 06:38:30;;;;;;;0.30;0.20;;;;;;;8.39;100.00;100270.00;5009110;28;21044;-46
2023/11/16 06:40:59;;;;;;;0.30;0.20;;;;;;;8.30;100.00;100263.06;5031570;28;20450;-47
2023/11/16 06:43:26;;;;;;;0.30;0.20;;;;;;;8.30;100.00;100266.56;5010350;28;20467;-46
2023/11/16 06:45:54;;;;;;;0.30;0.20;;;;;;;8.16;100.00;100257.16;5034153;28;20918;-46
2023/11/16 06:48:21;;;;;;;0.30;0.20;;;;;;;7.99;100.00;100255.72;5032548;28;20463;-46
2023/11/16 06:50:49;;;;;;;0.30;0.20;;;;;;;8.05;100.00;100262.66;5021133;28;20488;-46
2023/11/16 06:53:16;;;;;;;0.30;0.20;;;;;;;7.98;100.00;100259.25;5029186;28;20479;-45
2023/11/16 06:55:43;;;;;;;0.30;0.20;;;;;;;7.97;100.00;100270.75;5035363;28;20531;-46
2023/11/16 06:58:10;;;;;;;0.30;0.20;;;;;;;7.92;100.00;100262.00;5030632;28;20451;-46
2023/11/16 07:00:36;;;;;;;0.30;0.20;;;;;;;7.92;100.00;100259.34;5016600;28;20476;-46
2023/11/16 07:03:04;;;;;;;0.30;0.20;;;;;;;8.08;100.00;100251.13;5023472;28;20535;-46
2023/11/16 07:05:32;;;;;;;0.30;0.20;;;;;;;8.09;100.00;100245.84;5018900;28;20452;-46
2023/11/16 07:08:02;;;;;;;0.30;0.20;;;;;;;8.10;100.00;100257.28;5027193;28;20487;-46
2023/11/16 07:10:29;;;;;;;0.30;0.20;;;;;;;8.30;100.00;100245.38;5026462;28;20492;-47
2023/11/16 07:12:56;;;;;;;0.30;0.20;;;;;;;8.32;100.00;100245.34;5020326;28;20468;-47
2023/11/16 07:15:23;;;;;;;0.30;0.20;;;;;;;8.32;100.00;100248.88;5028641;28;20891;-47
2023/11/16 07:17:49;;;;;;;0.30;0.20;;;;;;;8.37;100.00;100245.31;5034443;28;20510;-47
2023/11/16 07:20:17;;;;;;;0.30;0.20;;;;;;;8.53;100.00;100238.78;5021547;28;21003;-47
2023/11/16 07:22:43;;;;;;;0.30;0.20;;;;;;;8.51;100.00;100238.81;5030542;28;20501;-48
2023/11/16 07:25:10;;;;;;;0.30;0.20;;;;;;;8.52;100.00;100235.28;5025074;28;20453;-47
2023/11/16 07:27:40;;;;;;;0.30;0.20;;;;;;;8.47;100.00;100226.53;5028792;28;20531;-47
2023/11/16 07:30:07;;;;;;;0.30;0.20;;;;;;;8.42;100.00;100231.06;5023615;28;20469;-47
2023/11/16 07:32:34;;;;;;;0.30;0.20;;;;;;;8.51;100.00;100230.88;5017525;28;20869;-46
2023/11/16 07:35:14;;;;;;;0.30;0.20;;;;;;;8.56;100.00;100233.41;5032926;28;20517;-46
2023/11/16 07:37:47;;;;;;;0.30;0.20;;;;;;;8.45;100.00;100233.66;5013525;28;20548;-46
2023/11/16 07:40:15;;;;;;;0.30;0.20;;;;;;;8.51;100.00;100222.94;5026051;28;20510;-46
2023/11/16 07:42:43;;;;;;;0.30;0.20;;;;;;;8.56;100.00;100218.41;5015258;28;20776;-46
2023/11/16 07:45:11;;;;;;;0.30;0.20;;;;;;;8.61;100.00;100211.22;5019923;28;20452;-46
2023/11/16 07:47:42;;;;;;;0.30;0.20;;;;;;;8.72;100.00;100203.03;5028349;28;20456;-46
2023/11/16 07:50:12;;;;;;;0.30;0.20;;;;;;;8.76;100.00;100201.19;5029677;28;20475;-47
2023/11/16 07:52:43;;;;;;;0.30;0.20;;;;;;;8.75;100.00;100194.13;5023525;28;20859;-47
2023/11/16 07:55:16;;;;;;;0.30;0.20;;;;;;;8.78;100.00;100184.38;5025273;28;20575;-47
2023/11/16 07:57:47;;;;;;;0.30;0.20;;;;;;;8.87;100.00;100189.44;5015540;28;20448;-46
2023/11/16 08:00:26;;;;;;;0.30;0.20;;;;;;;8.99;100.00;100198.88;5018956;28;20511;-49
2023/11/16 08:05:41;;;;;;;0.30;0.20;;;;;;;9.09;100.00;100205.72;5017543;28;20941;-49
2023/11/16 08:08:12;;;;;;;0.30;0.20;;;;;;;9.15;100.00;100202.03;5024115;28;21490;-48
2023/11/16 08:10:42;;;;;;;0.30;0.20;;;;;;;9.14;100.00;100194.97;5030065;28;20574;-48
2023/11/16 08:13:10;;;;;;;0.30;0.20;;;;;;;9.24;100.00;100177.94;5029738;28;20451;-48
2023/11/16 08:15:42;;;;;;;0.30;0.20;;;;;;;9.33;100.00;100175.06;5026064;28;20535;-48
2023/11/16 08:18:12;;;;;;;0.30;0.20;;;;;;;9.27;100.00;100171.69;5023148;28;20447;-48
2023/11/16 08:20:39;;;;;;;0.30;0.20;;;;;;;9.32;100.00;100173.34;5018790;28;20560;-48
2023/11/16 08:23:06;;;;;;;0.30;0.20;;;;;;;9.31;100.00;100171.56;5027950;28;20750;-48
2023/11/16 08:25:33;;;;;;;0.30;0.20;;;;;;;9.31;100.00;100170.69;5028753;28;20577;-49
2023/11/16 08:28:01;;;;;;;0.30;0.20;;;;;;;9.43;100.00;100173.03;5017564;28;20448;-48
2023/11/16 08:30:27;;;;;;;0.30;0.20;;;;;;;9.41;100.00;100169.56;5015076;28;20564;-48
2023/11/16 08:32:54;;;;;;;0.30;0.20;;;;;;;9.52;100.00;100158.66;5029709;28;20549;-49
2023/11/16 08:35:23;;;;;;;0.30;0.20;;;;;;;9.61;100.00;100155.78;5019852;28;20456;-48
2023/11/16 08:37:49;;;;;;;0.30;0.20;;;;;;;9.61;100.00;100158.44;5023815;28;20460;-48
2023/11/16 08:40:16;;;;;;;0.30;0.20;;;;;;;9.63;100.00;100148.66;5015606;28;20563;-48
2023/11/16 08:42:43;;;;;;;0.30;0.20;;;;;;;9.63;100.00;100146.88;5030572;28;20535;-48
2023/11/16 08:45:17;;;;;;;0.30;0.20;;;;;;;9.69;100.00;100140.50;5018938;28;20460;-48
2023/11/16 08:47:45;;;;;;;0.30;0.20;;;;;;;9.70;100.00;100129.84;5027320;28;20451;-48
2023/11/16 08:50:13;;;;;;;0.30;0.20;;;;;;;9.67;100.00;100129.06;5016150;28;20482;-49
2023/11/16 08:52:42;;;;;;;0.30;0.20;;;;;;;9.61;100.00;100118.63;5016729;28;20554;-48
2023/11/16 08:55:11;;;;;;;0.30;0.20;;;;;;;9.68;100.00;100114.88;5023593;28;20460;-48
2023/11/16 08:57:40;;;;;;;0.30;0.20;;;;;;;9.71;100.00;100110.34;5030070;28;20498;-48
2023/11/16 09:00:27;;;;;;;0.30;0.20;;;;;;;9.64;100.00;100106.13;5030978;28;20479;-49
2023/11/16 09:02:59;;;;;;;0.30;0.20;;;;;;;9.77;100.00;100102.22;5022866;28;20547;-49
2023/11/16 09:05:28;;;;;;;0.30;0.20;;;;;;;9.71;100.00;100101.53;5024329;28;20865;-49
2023/11/16 09:07:55;;;;;;;0.30;0.20;;;;;;;9.66;100.00;100103.44;5027133;28;20543;-49
2023/11/16 09:10:23;;;;;;;0.30;0.20;;;;;;;9.81;100.00;100100.34;5025891;28;20915;-48
2023/11/16 09:12:55;;;;;;;0.30;0.20;;;;;;;9.78;100.00;100101.31;5016287;28;20488;-49
2023/11/16 09:15:22;;;;;;;0.30;0.20;;;;;;;9.87;100.00;100093.97;5023679;28;20824;-49
2023/11/16 09:17:50;;;;;;;0.30;0.20;;;;;;;9.93;100.00;100089.38;5025262;28;20455;-48
2023/11/16 09:20:23;;;;;;;0.30;0.20;;;;;;;10.05;100.00;100090.81;5018675;28;20915;-49
2023/11/16 09:22:49;;;;;;;0.30;0.20;;;;;;;9.98;100.00;100076.81;5013833;28;20453;-48
2023/11/16 09:25:25;;;;;;;0.30;0.20;;;;;;;10.06;100.00;100085.44;5016079;28;20483;-49
2023/11/16 09:27:54;;;;;;;0.30;0.20;;;;;;;10.06;100.00;100082.78;5030015;28;20512;-48
2023/11/16 09:30:22;;;;;;;0.30;0.20;;;;;;;10.14;100.00;100071.06;5013974;28;21058;-48
2023/11/16 09:32:54;;;;;;;0.30;0.20;;;;;;;10.26;100.00;100076.03;5022749;28;21022;-48
2023/11/16 09:35:21;;;;;;;0.30;0.20;;;;;;;10.36;100.00;100072.19;5027259;28;20447;-48
2023/11/16 09:37:53;;;;;;;0.30;0.20;;;;;;;10.42;100.00;100063.16;5022888;28;20461;-48
2023/11/16 09:40:21;;;;;;;0.30;0.20;;;;;;;10.35;99.45;100055.38;5023123;28;20837;-48
2023/11/16 09:42:56;;;;;;;0.30;0.20;;;;;;;10.44;99.15;100056.00;5033188;28;20454;-49
2023/11/16 09:45:27;;;;;;;0.30;0.20;;;;;;;10.50;99.36;100043.38;5033524;28;20448;-48
2023/11/16 09:48:00;;;;;;;0.30;0.20;;;;;;;10.59;99.06;100036.91;5033404;28;20452;-48
2023/11/16 09:50:28;;;;;;;0.30;0.20;;;;;;;10.41;99.67;100027.72;5033312;28;20525;-48
2023/11/16 09:52:56;;;;;;;0.30;0.20;;;;;;;10.44;100.00;100029.44;5033168;28;20491;-48
2023/11/16 09:55:30;;;;;;;0.30;0.20;;;;;;;10.54;99.67;100017.56;5029882;28;20542;-49
2023/11/16 09:58:10;;;;;;;0.30;0.20;;;;;;;10.61;100.00;100011.16;5033476;28;20877;-49
2023/11/16 10:00:39;;;;;;;0.30;0.20;;;;;;;10.42;100.00;100005.56;5027307;28;20510;-49
2023/11/16 10:03:06;;;;;;;0.30;0.20;;;;;;;10.51;100.00;99993.75;5028327;28;20456;-49
2023/11/16 10:05:36;;;;;;;0.30;0.20;;;;;;;10.52;100.00;99987.53;5026208;28;20482;-49
2023/11/16 10:08:08;;;;;;;0.30;0.20;;;;;;;10.58;100.00;99974.91;5025964;28;20542;-49
2023/11/16 10:10:35;;;;;;;0.30;0.20;;;;;;;10.47;100.00;99976.19;5023471;28;20502;-49
2023/11/16 10:13:06;;;;;;;0.30;0.20;;;;;;;10.26;100.00;99954.69;5033599;28;20491;-48
2023/11/16 10:15:33;;;;;;;0.30;0.20;;;;;;;10.23;100.00;99960.13;5034322;28;20830;-49
2023/11/16 10:18:01;;;;;;;0.30;0.20;;;;;;;10.35;100.00;99953.53;5034334;28;20452;-49
2023/11/16 10:20:29;;;;;;;0.30;0.20;;;;;;;10.51;100.00;99951.25;5032955;28;20529;-49
2023/11/16 10:22:56;;;;;;;0.30;0.20;;;;;;;10.72;100.00;99947.88;5029515;28;20444;-48
2023/11/16 10:25:23;;;;;;;0.30;0.20;;;;;;;10.62;100.00;99941.13;5024801;28;20542;-49
2023/11/16 10:27:50;;;;;;;0.30;0.20;;;;;;;10.78;100.00;99933.47;5031997;28;20447;-49
2023/11/16 10:30:18;;;;;;;0.30;0.20;;;;;;;10.55;100.00;99924.53;5020431;28;20983;-49
2023/11/16 10:32:49;;;;;;;0.30;0.20;;;;;;;10.49;100.00;99911.44;5027606;28;20519;-48
2023/11/16 10:35:17;;;;;;;0.30;0.20;;;;;;;10.36;100.00;99902.16;5022868;28;20453;-48
2023/11/16 10:37:45;;;;;;;0.30;0.20;;;;;;;10.37;100.00;99901.22;5004063;28;20488;-48
2023/11/16 10:40:11;;;;;;;0.30;0.20;;;;;;;10.31;100.00;99891.69;4997834;28;20571;-49
2023/11/16 10:42:41;;;;;;;0.30;0.20;;;;;;;10.38;100.00;99887.88;5015943;28;20536;-48
2023/11/16 10:45:14;;;;;;;0.30;0.20;;;;;;;10.48;100.00;99874.28;5028494;28;20452;-48
2023/11/16 10:47:44;;;;;;;0.30;0.20;;;;;;;10.44;100.00;99873.53;5032970;28;20446;-49
2023/11/16 10:50:15;;;;;;;0.30;0.20;;;;;;;10.35;100.00;99864.09;5032489;28;20471;-49
2023/11/16 10:52:43;;;;;;;0.30;0.20;;;;;;;10.31;100.00;99857.16;5033419;28;20517;-48
2023/11/16 10:55:21;;;;;;;0.30;0.20;;;;;;;10.35;100.00;99861.44;5032918;28;20838;-48
2023/11/16 10:58:00;;;;;;;0.30;0.20;;;;;;;10.35;100.00;99857.91;5021851;28;20905;-48
2023/11/16 11:00:29;;;;;;;0.30;0.20;;;;;;;10.36;100.00;99855.19;5027937;28;21020;-48
2023/11/16 11:02:59;;;;;;;0.30;0.20;;;;;;;10.27;100.00;99844.00;5019596;28;20476;-48
2023/11/16 11:05:30;;;;;;;0.30;0.20;;;;;;;10.48;100.00;99832.63;5007259;28;20952;-49
2023/11/16 11:07:57;;;;;;;0.30;0.20;;;;;;;10.49;100.00;99823.75;5015730;28;20547;-49
2023/11/16 11:10:27;;;;;;;0.30;0.20;;;;;;;10.48;100.00;99815.84;5022164;28;20507;-49
2023/11/16 11:12:54;;;;;;;0.30;0.20;;;;;;;10.62;100.00;99825.03;5032351;28;20508;-49
2023/11/16 11:15:29;;;;;;;0.30;0.20;;;;;;;10.63;100.00;99831.22;5028803;28;20456;-49
2023/11/16 11:17:58;;;;;;;0.30;0.20;;;;;;;10.93;100.00;99835.41;5027933;28;20505;-48
2023/11/16 11:20:38;;;;;;;0.30;0.20;;;;;;;10.84;100.00;99840.22;5031791;28;20471;-48
2023/11/16 11:23:12;;;;;;;0.30;0.20;;;;;;;11.01;100.00;99842.25;5019012;28;20452;-48
2023/11/16 11:25:42;;;;;;;0.30;0.20;;;;;;;11.01;99.82;99840.44;5031668;28;20951;-48
2023/11/16 11:28:11;;;;;;;0.30;0.20;;;;;;;11.05;99.49;99846.50;5031748;28;20454;-49
2023/11/16 11:30:54;;;;;;;0.30;0.20;;;;;;;11.23;98.37;99845.81;5016236;28;20468;-48
2023/11/16 11:33:32;;;;;;;0.30;0.20;;;;;;;11.13;98.87;99836.47;5022030;28;21053;-48
2023/11/16 11:35:59;;;;;;;0.30;0.20;;;;;;;11.19;97.99;99841.53;5031581;28;20451;-49